sensor_id;sensor_type;location;lat;lon;timestamp;pressure;altitude;pressure_sealevel;temperature;humidity
54822;BME280;41299;43.546;16.426;2022-09-09T00:00:16;101363.41;;;25.82;100.00
54822;BME280;41299;43.546;16.426;2022-09-09T00:05:51;101402.44;;;25.38;100.00
54822;BME280;41299;43.546;16.426;2022-09-09T00:08:31;101332.00;;;24.60;100.00
54822;BME280;41299;43.546;16.426;2022-09-09T00:11:04;101349.75;;;24.15;100.00
54822;BME280;41299;43.546;16.426;2022-09-09T00:13:42;101378.19;;;23.85;100.00
54822;BME280;41299;43.546;16.426;2022-09-09T00:16:21;101419.25;;;23.44;100.00
54822;BME280;41299;43.546;16.426;2022-09-09T00:21:15;101377.38;;;23.14;100.00
54822;BME280;41299;43.546;16.426;2022-09-09T00:24:01;101374.72;;;23.14;100.00
54822;BME280;41299;43.546;16.426;2022-09-09T00:26:43;101356.41;;;23.11;100.00
54822;BME280;41299;43.546;16.426;2022-09-09T00:29:14;101357.22;;;23.13;100.00
54822;BME280;41299;43.546;16.426;2022-09-09T00:31:43;101351.06;;;23.14;100.00
54822;BME280;41299;43.546;16.426;2022-09-09T00:34:13;101362.69;;;23.07;100.00
54822;BME280;41299;43.546;16.426;2022-09-09T00:36:40;101352.53;;;22.97;100.00
54822;BME280;41299;43.546;16.426;2022-09-09T00:39:13;101337.56;;;22.99;100.00
54822;BME280;41299;43.546;16.426;2022-09-09T00:42:25;101333.06;;;23.02;100.00
54822;BME280;41299;43.546;16.426;2022-09-09T00:47:49;101321.88;;;23.20;100.00
54822;BME280;41299;43.546;16.426;2022-09-09T00:58:09;101322.00;;;23.63;100.00
54822;BME280;41299;43.546;16.426;2022-09-09T01:01:08;101331.72;;;23.84;100.00
54822;BME280;41299;43.546;16.426;2022-09-09T01:03:35;101331.28;;;23.26;100.00
54822;BME280;41299;43.546;16.426;2022-09-09T01:16:35;101310.34;;;21.99;100.00
54822;BME280;41299;43.546;16.426;2022-09-09T01:19:02;101319.78;;;22.06;100.00
54822;BME280;41299;43.546;16.426;2022-09-09T01:22:01;101322.06;;;22.15;100.00
54822;BME280;41299;43.546;16.426;2022-09-09T01:24:43;101315.81;;;22.19;100.00
54822;BME280;41299;43.546;16.426;2022-09-09T01:27:13;101311.34;;;22.22;100.00
54822;BME280;41299;43.546;16.426;2022-09-09T01:29:40;101322.06;;;22.15;100.00
54822;BME280;41299;43.546;16.426;2022-09-09T01:32:40;101297.38;;;22.21;100.00
54822;BME280;41299;43.546;16.426;2022-09-09T01:36:02;101310.25;;;22.29;100.00
54822;BME280;41299;43.546;16.426;2022-09-09T01:38:00;101299.78;;;22.27;100.00
54822;BME280;41299;43.546;16.426;2022-09-09T01:40:26;101292.59;;;22.32;100.00
54822;BME280;41299;43.546;16.426;2022-09-09T01:42:52;101302.25;;;22.32;100.00
54822;BME280;41299;43.546;16.426;2022-09-09T01:45:18;101292.56;;;22.34;100.00
54822;BME280;41299;43.546;16.426;2022-09-09T01:47:45;101297.81;;;22.34;100.00
54822;BME280;41299;43.546;16.426;2022-09-09T01:50:13;101300.00;;;22.46;100.00
54822;BME280;41299;43.546;16.426;2022-09-09T01:52:40;101299.09;;;22.47;100.00
54822;BME280;41299;43.546;16.426;2022-09-09T01:55:06;101291.16;;;22.49;100.00
54822;BME280;41299;43.546;16.426;2022-09-09T02:00:07;101284.44;;;22.66;100.00
54822;BME280;41299;43.546;16.426;2022-09-09T02:03:04;101279.28;;;22.63;100.00
54822;BME280;41299;43.546;16.426;2022-09-09T02:05:41;101272.16;;;22.66;100.00
54822;BME280;41299;43.546;16.426;2022-09-09T02:10:41;101262.22;;;22.75;100.00
54822;BME280;41299;43.546;16.426;2022-09-09T02:13:11;101272.56;;;22.79;100.00
54822;BME280;41299;43.546;16.426;2022-09-09T02:15:52;101265.13;;;22.91;100.00
54822;BME280;41299;43.546;16.426;2022-09-09T02:18:45;101268.63;;;22.91;100.00
54822;BME280;41299;43.546;16.426;2022-09-09T02:21:09;101269.50;;;22.90;100.00
54822;BME280;41299;43.546;16.426;2022-09-09T02:23:37;101261.84;;;22.84;100.00
54822;BME280;41299;43.546;16.426;2022-09-09T02:26:05;101260.28;;;22.80;100.00
54822;BME280;41299;43.546;16.426;2022-09-09T02:28:34;101260.88;;;22.86;100.00
54822;BME280;41299;43.546;16.426;2022-09-09T02:31:02;101263.59;;;22.85;100.00
54822;BME280;41299;43.546;16.426;2022-09-09T02:33:32;101262.97;;;22.78;100.00
54822;BME280;41299;43.546;16.426;2022-09-09T02:36:01;101268.25;;;22.77;100.00
54822;BME280;41299;43.546;16.426;2022-09-09T02:38:31;101264.63;;;22.81;100.00
54822;BME280;41299;43.546;16.426;2022-09-09T02:40:58;101265.34;;;22.84;100.00
54822;BME280;41299;43.546;16.426;2022-09-09T02:43:24;101251.09;;;22.90;100.00
54822;BME280;41299;43.546;16.426;2022-09-09T02:49:04;101245.72;;;22.93;100.00
54822;BME280;41299;43.546;16.426;2022-09-09T02:54:28;101245.97;;;22.87;100.00
54822;BME280;41299;43.546;16.426;2022-09-09T02:59:29;101238.28;;;22.82;100.00
54822;BME280;41299;43.546;16.426;2022-09-09T03:01:55;101232.88;;;22.85;100.00
54822;BME280;41299;43.546;16.426;2022-09-09T03:04:21;101233.84;;;22.83;100.00
54822;BME280;41299;43.546;16.426;2022-09-09T03:06:47;101234.22;;;22.73;100.00
54822;BME280;41299;43.546;16.426;2022-09-09T03:09:12;101236.72;;;22.77;100.00
54822;BME280;41299;43.546;16.426;2022-09-09T03:11:38;101227.84;;;22.79;100.00
54822;BME280;41299;43.546;16.426;2022-09-09T03:14:04;101226.00;;;22.81;100.00
54822;BME280;41299;43.546;16.426;2022-09-09T03:16:29;101231.81;;;22.91;100.00
54822;BME280;41299;43.546;16.426;2022-09-09T03:18:55;101235.22;;;22.93;100.00
54822;BME280;41299;43.546;16.426;2022-09-09T03:21:20;101231.66;;;22.94;100.00
54822;BME280;41299;43.546;16.426;2022-09-09T03:23:46;101227.97;;;23.00;100.00
54822;BME280;41299;43.546;16.426;2022-09-09T03:26:12;101241.84;;;23.04;100.00
54822;BME280;41299;43.546;16.426;2022-09-09T03:28:40;101228.75;;;23.02;100.00
54822;BME280;41299;43.546;16.426;2022-09-09T03:31:06;101228.75;;;23.02;100.00
54822;BME280;41299;43.546;16.426;2022-09-09T03:33:31;101235.75;;;23.02;100.00
54822;BME280;41299;43.546;16.426;2022-09-09T03:35:57;101237.66;;;22.98;100.00
54822;BME280;41299;43.546;16.426;2022-09-09T03:38:23;101238.72;;;22.94;100.00
54822;BME280;41299;43.546;16.426;2022-09-09T03:40:53;101230.75;;;22.95;100.00
54822;BME280;41299;43.546;16.426;2022-09-09T03:43:26;101222.75;;;22.98;100.00
54822;BME280;41299;43.546;16.426;2022-09-09T03:45:52;101228.31;;;23.13;100.00
54822;BME280;41299;43.546;16.426;2022-09-09T03:48:18;101218.59;;;23.15;100.00
54822;BME280;41299;43.546;16.426;2022-09-09T03:50:48;101215.81;;;23.18;100.00
54822;BME280;41299;43.546;16.426;2022-09-09T03:53:15;101220.97;;;23.21;100.00
54822;BME280;41299;43.546;16.426;2022-09-09T03:55:45;101220.06;;;23.22;100.00
54822;BME280;41299;43.546;16.426;2022-09-09T03:58:12;101221.75;;;23.23;100.00
54822;BME280;41299;43.546;16.426;2022-09-09T04:00:38;101237.50;;;23.25;100.00
54822;BME280;41299;43.546;16.426;2022-09-09T04:03:08;101234.00;;;23.24;100.00
54822;BME280;41299;43.546;16.426;2022-09-09T04:05:33;101242.81;;;23.23;100.00
54822;BME280;41299;43.546;16.426;2022-09-09T04:07:59;101239.41;;;23.21;100.00
54822;BME280;41299;43.546;16.426;2022-09-09T04:10:24;101248.31;;;23.17;100.00
54822;BME280;41299;43.546;16.426;2022-09-09T04:12:50;101244.53;;;23.24;100.00
54822;BME280;41299;43.546;16.426;2022-09-09T04:15:15;101244.31;;;23.31;100.00
54822;BME280;41299;43.546;16.426;2022-09-09T04:17:40;101241.38;;;23.38;100.00
54822;BME280;41299;43.546;16.426;2022-09-09T04:20:06;101234.88;;;23.47;100.00
54822;BME280;41299;43.546;16.426;2022-09-09T04:22:36;101234.03;;;23.47;100.00
54822;BME280;41299;43.546;16.426;2022-09-09T04:25:04;101239.09;;;23.51;100.00
54822;BME280;41299;43.546;16.426;2022-09-09T04:27:31;101241.63;;;23.55;100.00
54822;BME280;41299;43.546;16.426;2022-09-09T04:29:56;101239.03;;;23.53;100.00
54822;BME280;41299;43.546;16.426;2022-09-09T04:32:22;101242.44;;;23.55;100.00
54822;BME280;41299;43.546;16.426;2022-09-09T04:34:48;101240.63;;;23.57;100.00
54822;BME280;41299;43.546;16.426;2022-09-09T04:37:14;101238.97;;;23.55;100.00
54822;BME280;41299;43.546;16.426;2022-09-09T04:39:39;101243.53;;;23.51;100.00
54822;BME280;41299;43.546;16.426;2022-09-09T04:42:05;101249.63;;;23.51;100.00
54822;BME280;41299;43.546;16.426;2022-09-09T04:44:30;101257.53;;;23.51;100.00
54822;BME280;41299;43.546;16.426;2022-09-09T04:46:55;101256.69;;;23.51;100.00
54822;BME280;41299;43.546;16.426;2022-09-09T04:49:21;101253.13;;;23.52;100.00
54822;BME280;41299;43.546;16.426;2022-09-09T04:51:48;101254.88;;;23.51;100.00
54822;BME280;41299;43.546;16.426;2022-09-09T04:54:14;101249.63;;;23.51;100.00
54822;BME280;41299;43.546;16.426;2022-09-09T04:56:39;101249.69;;;23.50;100.00
54822;BME280;41299;43.546;16.426;2022-09-09T04:59:06;101248.78;;;23.51;100.00
54822;BME280;41299;43.546;16.426;2022-09-09T05:01:32;101248.84;;;23.49;100.00
54822;BME280;41299;43.546;16.426;2022-09-09T05:03:57;101247.97;;;23.49;100.00
54822;BME280;41299;43.546;16.426;2022-09-09T05:06:23;101263.72;;;23.50;100.00
54822;BME280;41299;43.546;16.426;2022-09-09T05:08:49;101255.81;;;23.50;100.00
54822;BME280;41299;43.546;16.426;2022-09-09T05:11:22;101259.38;;;23.49;100.00
54822;BME280;41299;43.546;16.426;2022-09-09T05:13:49;101274.25;;;23.50;100.00
54822;BME280;41299;43.546;16.426;2022-09-09T05:16:16;101271.59;;;23.50;100.00
54822;BME280;41299;43.546;16.426;2022-09-09T05:18:42;101272.53;;;23.49;100.00
54822;BME280;41299;43.546;16.426;2022-09-09T05:21:12;101270.81;;;23.48;100.00
54822;BME280;41299;43.546;16.426;2022-09-09T05:23:38;101266.34;;;23.50;100.00
54822;BME280;41299;43.546;16.426;2022-09-09T05:26:04;101263.41;;;23.58;100.00
54822;BME280;41299;43.546;16.426;2022-09-09T05:28:30;101268.72;;;23.57;100.00
54822;BME280;41299;43.546;16.426;2022-09-09T05:30:57;101271.09;;;23.63;100.00
54822;BME280;41299;43.546;16.426;2022-09-09T05:33:24;101264.13;;;23.62;100.00
54822;BME280;41299;43.546;16.426;2022-09-09T05:36:01;101260.50;;;23.64;100.00
54822;BME280;41299;43.546;16.426;2022-09-09T05:38:28;101255.31;;;23.63;100.00
54822;BME280;41299;43.546;16.426;2022-09-09T05:40:54;101262.28;;;23.64;100.00
54822;BME280;41299;43.546;16.426;2022-09-09T05:43:20;101258.53;;;23.70;100.00
54822;BME280;41299;43.546;16.426;2022-09-09T05:45:58;101251.38;;;23.73;100.00
54822;BME280;41299;43.546;16.426;2022-09-09T05:48:27;101257.31;;;23.78;100.00
54822;BME280;41299;43.546;16.426;2022-09-09T05:50:54;101248.34;;;23.83;100.00
54822;BME280;41299;43.546;16.426;2022-09-09T05:53:19;101246.38;;;23.88;100.00
54822;BME280;41299;43.546;16.426;2022-09-09T05:55:45;101257.69;;;23.90;100.00
54822;BME280;41299;43.546;16.426;2022-09-09T05:58:11;101258.47;;;23.92;100.00
54822;BME280;41299;43.546;16.426;2022-09-09T06:00:36;101254.91;;;23.93;100.00
54822;BME280;41299;43.546;16.426;2022-09-09T06:03:03;101251.91;;;24.02;100.00
54822;BME280;41299;43.546;16.426;2022-09-09T06:05:29;101258.66;;;24.10;100.00
54822;BME280;41299;43.546;16.426;2022-09-09T06:07:55;101259.44;;;24.12;100.00
54822;BME280;41299;43.546;16.426;2022-09-09T06:10:21;101261.00;;;24.16;100.00
54822;BME280;41299;43.546;16.426;2022-09-09T06:12:47;101266.88;;;24.23;100.00
54822;BME280;41299;43.546;16.426;2022-09-09T06:15:12;101278.00;;;24.29;100.00
54822;BME280;41299;43.546;16.426;2022-09-09T06:17:37;101283.78;;;24.38;100.00
54822;BME280;41299;43.546;16.426;2022-09-09T06:20:04;101276.97;;;24.53;100.00
54822;BME280;41299;43.546;16.426;2022-09-09T06:22:30;101280.69;;;24.68;100.00
54822;BME280;41299;43.546;16.426;2022-09-09T06:24:58;101285.38;;;24.82;100.00
54822;BME280;41299;43.546;16.426;2022-09-09T06:27:23;101286.88;;;24.88;100.00
54822;BME280;41299;43.546;16.426;2022-09-09T06:29:49;101284.09;;;24.91;100.00
54822;BME280;41299;43.546;16.426;2022-09-09T06:32:14;101282.31;;;24.91;100.00
54822;BME280;41299;43.546;16.426;2022-09-09T06:34:39;101285.53;;;24.98;100.00
54822;BME280;41299;43.546;16.426;2022-09-09T06:37:05;101284.31;;;25.05;100.00
54822;BME280;41299;43.546;16.426;2022-09-09T06:39:31;101285.94;;;25.08;100.00
54822;BME280;41299;43.546;16.426;2022-09-09T06:41:57;101285.81;;;25.11;100.00
54822;BME280;41299;43.546;16.426;2022-09-09T06:44:24;101273.31;;;25.15;100.00
54822;BME280;41299;43.546;16.426;2022-09-09T06:46:52;101273.16;;;25.18;100.00
54822;BME280;41299;43.546;16.426;2022-09-09T06:49:17;101272.97;;;25.22;100.00
54822;BME280;41299;43.546;16.426;2022-09-09T06:51:43;101269.09;;;25.30;100.00
54822;BME280;41299;43.546;16.426;2022-09-09T06:54:10;101279.13;;;25.40;100.00
54822;BME280;41299;43.546;16.426;2022-09-09T06:56:38;101274.47;;;25.46;100.00
54822;BME280;41299;43.546;16.426;2022-09-09T06:59:06;101276.53;;;25.39;100.00
54822;BME280;41299;43.546;16.426;2022-09-09T07:01:37;101270.25;;;25.42;100.00
54822;BME280;41299;43.546;16.426;2022-09-09T07:04:05;101272.25;;;25.36;100.00
54822;BME280;41299;43.546;16.426;2022-09-09T07:06:37;101270.25;;;25.42;100.00
54822;BME280;41299;43.546;16.426;2022-09-09T07:09:08;101266.47;;;25.47;100.00
54822;BME280;41299;43.546;16.426;2022-09-09T07:11:38;101269.13;;;25.47;100.00
54822;BME280;41299;43.546;16.426;2022-09-09T07:14:03;101267.94;;;25.53;100.00
54822;BME280;41299;43.546;16.426;2022-09-09T07:16:29;101257.66;;;25.66;100.00
54822;BME280;41299;43.546;16.426;2022-09-09T07:18:56;101257.34;;;25.72;100.00
54822;BME280;41299;43.546;16.426;2022-09-09T07:21:24;101253.94;;;25.70;100.00
54822;BME280;41299;43.546;16.426;2022-09-09T07:23:51;101250.22;;;25.74;100.00
54822;BME280;41299;43.546;16.426;2022-09-09T07:26:19;101263.44;;;25.92;100.00
54822;BME280;41299;43.546;16.426;2022-09-09T07:28:45;101261.16;;;26.02;100.00
54822;BME280;41299;43.546;16.426;2022-09-09T07:31:19;101271.16;;;26.13;100.00
54822;BME280;41299;43.546;16.426;2022-09-09T07:33:45;101268.84;;;26.06;100.00
54822;BME280;41299;43.546;16.426;2022-09-09T07:36:16;101275.81;;;26.07;100.00
54822;BME280;41299;43.546;16.426;2022-09-09T07:38:51;101274.19;;;26.40;100.00
54822;BME280;41299;43.546;16.426;2022-09-09T07:41:28;101256.66;;;26.71;100.00
54822;BME280;41299;43.546;16.426;2022-09-09T07:43:55;101256.91;;;26.83;100.00
54822;BME280;41299;43.546;16.426;2022-09-09T07:46:22;101259.94;;;26.93;100.00
54822;BME280;41299;43.546;16.426;2022-09-09T07:48:54;101264.66;;;27.04;100.00
54822;BME280;41299;43.546;16.426;2022-09-09T07:51:23;101270.88;;;27.03;100.00
54822;BME280;41299;43.546;16.426;2022-09-09T07:53:55;101274.09;;;27.08;100.00
54822;BME280;41299;43.546;16.426;2022-09-09T07:56:22;101273.59;;;27.17;100.00
54822;BME280;41299;43.546;16.426;2022-09-09T07:58:48;101272.41;;;27.23;100.00
54822;BME280;41299;43.546;16.426;2022-09-09T08:03:44;101283.47;;;27.30;100.00
54822;BME280;41299;43.546;16.426;2022-09-09T08:06:10;101279.63;;;27.19;100.00
54822;BME280;41299;43.546;16.426;2022-09-09T08:08:38;101282.56;;;27.15;100.00
54822;BME280;41299;43.546;16.426;2022-09-09T08:11:08;101282.28;;;27.19;100.00
54822;BME280;41299;43.546;16.426;2022-09-09T08:13:38;101298.00;;;27.22;100.00
54822;BME280;41299;43.546;16.426;2022-09-09T08:18:34;101296.47;;;27.18;100.00
54822;BME280;41299;43.546;16.426;2022-09-09T08:21:17;101286.81;;;27.17;100.00
54822;BME280;41299;43.546;16.426;2022-09-09T08:23:44;101295.13;;;27.11;99.38
54822;BME280;41299;43.546;16.426;2022-09-09T08:26:14;101290.56;;;27.13;98.26
54822;BME280;41299;43.546;16.426;2022-09-09T08:28:41;101296.91;;;27.26;95.70
54822;BME280;41299;43.546;16.426;2022-09-09T08:31:15;101292.84;;;27.51;94.47
54822;BME280;41299;43.546;16.426;2022-09-09T08:33:42;101302.41;;;27.70;97.70
54822;BME280;41299;43.546;16.426;2022-09-09T08:36:11;101297.91;;;27.87;93.29
54822;BME280;41299;43.546;16.426;2022-09-09T08:38:37;101299.44;;;27.91;95.07
54822;BME280;41299;43.546;16.426;2022-09-09T08:44:26;101300.53;;;28.17;96.01
54822;BME280;41299;43.546;16.426;2022-09-09T08:55:10;101295.34;;;28.89;84.65
54822;BME280;41299;43.546;16.426;2022-09-09T08:57:38;101301.78;;;28.99;85.05
54822;BME280;41299;43.546;16.426;2022-09-09T09:00:04;101303.47;;;29.00;82.98
54822;BME280;41299;43.546;16.426;2022-09-09T09:05:31;101304.63;;;28.96;100.00
54822;BME280;41299;43.546;16.426;2022-09-09T09:10:53;101312.50;;;28.83;100.00
54822;BME280;41299;43.546;16.426;2022-09-09T09:16:13;101306.53;;;28.50;100.00
54822;BME280;41299;43.546;16.426;2022-09-09T09:18:42;101304.84;;;28.35;100.00
54822;BME280;41299;43.546;16.426;2022-09-09T09:21:19;101305.00;;;28.17;100.00
54822;BME280;41299;43.546;16.426;2022-09-09T09:23:58;101296.91;;;28.04;100.00
54822;BME280;41299;43.546;16.426;2022-09-09T09:26:27;101300.47;;;27.88;100.00
54822;BME280;41299;43.546;16.426;2022-09-09T09:28:55;101289.56;;;27.78;100.00
54822;BME280;41299;43.546;16.426;2022-09-09T09:31:22;101288.00;;;27.60;100.00
54822;BME280;41299;43.546;16.426;2022-09-09T09:33:50;101290.78;;;27.57;100.00
54822;BME280;41299;43.546;16.426;2022-09-09T09:36:18;101286.50;;;27.70;100.00
54822;BME280;41299;43.546;16.426;2022-09-09T09:38:58;101290.47;;;27.63;100.00
54822;BME280;41299;43.546;16.426;2022-09-09T09:41:32;101288.03;;;27.74;100.00
54822;BME280;41299;43.546;16.426;2022-09-09T09:43:58;101277.06;;;27.80;100.00
54822;BME280;41299;43.546;16.426;2022-09-09T09:46:25;101284.84;;;27.84;100.00
54822;BME280;41299;43.546;16.426;2022-09-09T09:49:05;101280.31;;;27.86;100.00
54822;BME280;41299;43.546;16.426;2022-09-09T09:51:34;101271.59;;;27.84;100.00
54822;BME280;41299;43.546;16.426;2022-09-09T09:54:23;101280.72;;;27.94;100.00
54822;BME280;41299;43.546;16.426;2022-09-09T09:56:52;101283.44;;;28.07;100.00
54822;BME280;41299;43.546;16.426;2022-09-09T09:59:32;101280.91;;;28.20;100.00
54822;BME280;41299;43.546;16.426;2022-09-09T10:02:20;101274.25;;;28.43;100.00
54822;BME280;41299;43.546;16.426;2022-09-09T10:04:46;101277.34;;;28.50;100.00
54822;BME280;41299;43.546;16.426;2022-09-09T10:09:38;101275.13;;;28.86;100.00
54822;BME280;41299;43.546;16.426;2022-09-09T10:12:45;101281.50;;;28.98;100.00
54822;BME280;41299;43.546;16.426;2022-09-09T10:28:37;101287.28;;;29.73;98.97
54822;BME280;41299;43.546;16.426;2022-09-09T10:33:51;101285.06;;;29.66;100.00
54822;BME280;41299;43.546;16.426;2022-09-09T10:36:24;101283.25;;;29.39;100.00
54822;BME280;41299;43.546;16.426;2022-09-09T10:39:28;101283.78;;;29.45;100.00
54822;BME280;41299;43.546;16.426;2022-09-09T10:42:15;101272.72;;;29.78;100.00
54822;BME280;41299;43.546;16.426;2022-09-09T10:55:22;101282.09;;;29.44;100.00
54822;BME280;41299;43.546;16.426;2022-09-09T10:57:52;101283.31;;;29.52;100.00
54822;BME280;41299;43.546;16.426;2022-09-09T11:00:38;101274.63;;;29.63;100.00
54822;BME280;41299;43.546;16.426;2022-09-09T11:03:06;101279.75;;;29.66;100.00
54822;BME280;41299;43.546;16.426;2022-09-09T11:05:42;101275.47;;;29.77;97.81
54822;BME280;41299;43.546;16.426;2022-09-09T11:08:21;101275.09;;;29.83;99.78
54822;BME280;41299;43.546;16.426;2022-09-09T11:11:02;101258.91;;;29.86;99.12
54822;BME280;41299;43.546;16.426;2022-09-09T11:22:02;101255.75;;;30.07;100.00
54822;BME280;41299;43.546;16.426;2022-09-09T11:24:38;101255.63;;;29.83;100.00
54822;BME280;41299;43.546;16.426;2022-09-09T11:40:38;101247.44;;;29.99;100.00
54822;BME280;41299;43.546;16.426;2022-09-09T11:45:34;101241.81;;;29.90;100.00
54822;BME280;41299;43.546;16.426;2022-09-09T11:48:02;101244.34;;;29.92;100.00
54822;BME280;41299;43.546;16.426;2022-09-09T11:50:30;101238.72;;;29.97;100.00
54822;BME280;41299;43.546;16.426;2022-09-09T11:55:39;101230.88;;;30.21;100.00
54822;BME280;41299;43.546;16.426;2022-09-09T12:02:58;101232.72;;;30.58;100.00
54822;BME280;41299;43.546;16.426;2022-09-09T12:05:36;101237.75;;;30.87;100.00
54822;BME280;41299;43.546;16.426;2022-09-09T12:08:04;101232.75;;;31.07;100.00
54822;BME280;41299;43.546;16.426;2022-09-09T12:10:32;101238.13;;;30.94;100.00
54822;BME280;41299;43.546;16.426;2022-09-09T12:13:27;101243.34;;;30.95;100.00
54822;BME280;41299;43.546;16.426;2022-09-09T12:15:58;101236.53;;;30.91;99.00
54822;BME280;41299;43.546;16.426;2022-09-09T12:18:35;101234.53;;;30.95;100.00
54822;BME280;41299;43.546;16.426;2022-09-09T12:21:13;101234.69;;;30.67;100.00
54822;BME280;41299;43.546;16.426;2022-09-09T12:23:50;101228.31;;;30.57;100.00
54822;BME280;41299;43.546;16.426;2022-09-09T12:26:33;101229.97;;;30.46;100.00
54822;BME280;41299;43.546;16.426;2022-09-09T12:37:14;101231.59;;;30.36;100.00
54822;BME280;41299;43.546;16.426;2022-09-09T12:42:20;101239.84;;;30.44;100.00
54822;BME280;41299;43.546;16.426;2022-09-09T12:44:53;101232.13;;;30.28;100.00
54822;BME280;41299;43.546;16.426;2022-09-09T12:47:21;101233.00;;;30.16;100.00
54822;BME280;41299;43.546;16.426;2022-09-09T12:49:49;101222.13;;;30.06;100.00
54822;BME280;41299;43.546;16.426;2022-09-09T12:52:18;101217.13;;;30.01;100.00
54822;BME280;41299;43.546;16.426;2022-09-09T12:54:47;101222.97;;;30.06;100.00
54822;BME280;41299;43.546;16.426;2022-09-09T12:57:14;101222.84;;;29.95;100.00
54822;BME280;41299;43.546;16.426;2022-09-09T12:59:41;101213.84;;;30.11;100.00
54822;BME280;41299;43.546;16.426;2022-09-09T13:02:23;101228.28;;;30.06;100.00
54822;BME280;41299;43.546;16.426;2022-09-09T13:04:50;101228.19;;;29.95;100.00
54822;BME280;41299;43.546;16.426;2022-09-09T13:07:19;101227.97;;;29.85;100.00
54822;BME280;41299;43.546;16.426;2022-09-09T13:09:46;101218.31;;;29.84;100.00
54822;BME280;41299;43.546;16.426;2022-09-09T13:12:21;101208.41;;;29.86;100.00
54822;BME280;41299;43.546;16.426;2022-09-09T13:14:55;101210.09;;;30.00;100.00
54822;BME280;41299;43.546;16.426;2022-09-09T13:17:26;101198.72;;;30.24;100.00
54822;BME280;41299;43.546;16.426;2022-09-09T13:19:54;101204.03;;;30.11;100.00
54822;BME280;41299;43.546;16.426;2022-09-09T13:22:33;101200.00;;;30.05;100.00
54822;BME280;41299;43.546;16.426;2022-09-09T13:25:00;101196.94;;;30.12;100.00
54822;BME280;41299;43.546;16.426;2022-09-09T13:29:56;101178.91;;;30.28;100.00
54822;BME280;41299;43.546;16.426;2022-09-09T13:32:23;101202.31;;;30.36;100.00
54822;BME280;41299;43.546;16.426;2022-09-09T13:34:54;101196.16;;;30.23;100.00
54822;BME280;41299;43.546;16.426;2022-09-09T13:37:46;101194.91;;;30.15;100.00
54822;BME280;41299;43.546;16.426;2022-09-09T13:40:20;101191.59;;;29.99;100.00
54822;BME280;41299;43.546;16.426;2022-09-09T13:42:47;101200.44;;;29.86;100.00
54822;BME280;41299;43.546;16.426;2022-09-09T13:45:21;101197.66;;;30.01;100.00
54822;BME280;41299;43.546;16.426;2022-09-09T13:47:47;101196.94;;;29.86;100.00
54822;BME280;41299;43.546;16.426;2022-09-09T13:52:49;101194.91;;;30.15;100.00
54822;BME280;41299;43.546;16.426;2022-09-09T13:55:17;101187.56;;;30.06;100.00
54822;BME280;41299;43.546;16.426;2022-09-09T13:58:00;101192.25;;;30.15;100.00
54822;BME280;41299;43.546;16.426;2022-09-09T14:00:29;101192.56;;;30.24;100.00
54822;BME280;41299;43.546;16.426;2022-09-09T14:02:55;101189.03;;;30.23;100.00
54822;BME280;41299;43.546;16.426;2022-09-09T14:05:21;101192.56;;;30.11;100.00
54822;BME280;41299;43.546;16.426;2022-09-09T14:07:47;101184.38;;;30.01;100.00
54822;BME280;41299;43.546;16.426;2022-09-09T14:10:13;101187.66;;;29.91;100.00
54822;BME280;41299;43.546;16.426;2022-09-09T14:12:39;101190.03;;;29.83;100.00
54822;BME280;41299;43.546;16.426;2022-09-09T14:15:06;101186.84;;;29.78;100.00
54822;BME280;41299;43.546;16.426;2022-09-09T14:17:32;101188.31;;;29.69;100.00
54822;BME280;41299;43.546;16.426;2022-09-09T14:19:58;101184.97;;;29.39;100.00
54822;BME280;41299;43.546;16.426;2022-09-09T14:22:24;101187.94;;;29.48;100.00
54822;BME280;41299;43.546;16.426;2022-09-09T14:24:50;101190.41;;;29.51;100.00
54822;BME280;41299;43.546;16.426;2022-09-09T14:27:16;101197.53;;;29.50;100.00
54822;BME280;41299;43.546;16.426;2022-09-09T14:29:42;101195.78;;;29.36;100.00
54822;BME280;41299;43.546;16.426;2022-09-09T14:32:09;101198.34;;;29.38;100.00
54822;BME280;41299;43.546;16.426;2022-09-09T14:34:35;101195.00;;;29.08;100.00
54822;BME280;41299;43.546;16.426;2022-09-09T14:37:00;101192.47;;;28.92;100.00
54822;BME280;41299;43.546;16.426;2022-09-09T14:39:26;101203.13;;;28.78;100.00
54822;BME280;41299;43.546;16.426;2022-09-09T14:41:51;101208.16;;;28.68;100.00
54822;BME280;41299;43.546;16.426;2022-09-09T14:44:17;101210.19;;;28.50;100.00
54822;BME280;41299;43.546;16.426;2022-09-09T14:46:43;101209.31;;;28.49;100.00
54822;BME280;41299;43.546;16.426;2022-09-09T14:49:08;101206.09;;;28.58;100.00
54822;BME280;41299;43.546;16.426;2022-09-09T14:51:35;101208.81;;;28.71;100.00
54822;BME280;41299;43.546;16.426;2022-09-09T14:54:01;101202.06;;;28.80;100.00
54822;BME280;41299;43.546;16.426;2022-09-09T14:56:30;101202.06;;;28.80;100.00
54822;BME280;41299;43.546;16.426;2022-09-09T14:58:57;101200.16;;;28.82;100.00
54822;BME280;41299;43.546;16.426;2022-09-09T15:01:24;101203.69;;;28.83;100.00
54822;BME280;41299;43.546;16.426;2022-09-09T15:03:56;101202.53;;;28.87;100.00
54822;BME280;41299;43.546;16.426;2022-09-09T15:06:27;101207.00;;;28.86;100.00